createdAt,value
2019-04-10T00:00:59.264Z,19.83
2019-04-10T00:03:34.456Z,20.90
2019-04-10T00:06:00.420Z,22.30
2019-04-10T00:08:30.361Z,22.07
2019-04-10T00:11:00.424Z,22.60
2019-04-10T00:13:29.716Z,25.17
2019-04-10T00:15:59.140Z,23.80
2019-04-10T00:18:28.372Z,23.07
2019-04-10T00:20:58.614Z,23.47
2019-04-10T00:23:27.987Z,23.40
2019-04-10T00:25:57.337Z,22.50
2019-04-10T00:28:27.551Z,23.03
2019-04-10T00:30:57.719Z,23.80
2019-04-10T00:33:27.292Z,23.27
2019-04-10T00:35:57.016Z,21.40
2019-04-10T00:38:26.278Z,21.80
2019-04-10T00:40:55.556Z,22.53
2019-04-10T00:43:24.789Z,23.33
2019-04-10T00:45:54.292Z,23.67
2019-04-10T00:48:24.040Z,23.80
2019-04-10T00:50:53.229Z,24.33
2019-04-10T00:53:23.242Z,22.77
2019-04-10T00:55:52.503Z,22.13
2019-04-10T00:58:22.555Z,21.13
2019-04-10T01:00:51.904Z,21.53
2019-04-10T01:03:39.988Z,21.33
2019-04-10T01:06:09.299Z,21.27
2019-04-10T01:08:38.582Z,22.63
2019-04-10T01:11:08.584Z,21.27
2019-04-10T01:13:37.923Z,21.93
2019-04-10T01:16:07.490Z,20.27
2019-04-10T01:18:37.402Z,19.77
2019-04-10T01:21:08.558Z,20.10
2019-04-10T01:23:38.061Z,20.57
2019-04-10T01:26:07.595Z,18.03
2019-04-10T01:28:36.847Z,19.00
2019-04-10T01:31:06.765Z,19.70
2019-04-10T01:33:36.856Z,20.33
2019-04-10T01:36:06.944Z,21.67
2019-04-10T01:38:36.215Z,19.80
2019-04-10T01:41:07.966Z,20.33
2019-04-10T01:43:37.202Z,20.83
2019-04-10T01:46:06.406Z,21.13
2019-04-10T01:48:36.301Z,20.70
2019-04-10T01:51:06.775Z,20.37
2019-04-10T01:53:35.914Z,19.97
2019-04-10T01:56:05.327Z,21.97
2019-04-10T01:58:34.933Z,21.83
2019-04-10T02:01:08.787Z,20.33
2019-04-10T02:03:38.354Z,21.00
2019-04-10T02:06:07.625Z,19.83
2019-04-10T02:08:36.834Z,18.37
2019-04-10T02:11:06.861Z,18.20
2019-04-10T02:13:36.049Z,17.93
2019-04-10T02:16:06.211Z,18.63
2019-04-10T02:18:35.468Z,18.13
2019-04-10T02:21:07.485Z,21.13
2019-04-10T02:23:36.740Z,21.57
2019-04-10T02:26:06.075Z,21.63
2019-04-10T02:28:36.187Z,21.80
2019-04-10T02:31:07.010Z,22.90
2019-04-10T02:33:36.389Z,22.43
2019-04-10T02:36:05.949Z,20.93
2019-04-10T02:38:50.268Z,18.20
2019-04-10T02:41:08.498Z,19.10
2019-04-10T02:43:38.027Z,19.10
2019-04-10T02:46:08.372Z,19.47
2019-04-10T02:48:39.259Z,19.10
2019-04-10T02:51:09.683Z,20.07
2019-04-10T02:53:39.469Z,19.07
2019-04-10T02:56:09.096Z,21.20
2019-04-10T02:58:38.615Z,22.10
2019-04-10T03:01:09.386Z,22.47
2019-04-10T03:03:39.929Z,23.17
2019-04-10T03:06:11.374Z,24.63
2019-04-10T03:08:55.884Z,26.43
2019-04-10T03:11:12.441Z,25.93
2019-04-10T03:13:43.013Z,26.37
2019-04-10T03:16:13.862Z,26.93
2019-04-10T03:18:43.256Z,27.17
2019-04-10T03:21:13.637Z,26.07
2019-04-10T03:23:42.902Z,26.47
2019-04-10T03:26:13.109Z,27.73
2019-04-10T03:28:43.075Z,28.73
2019-04-10T03:31:13.202Z,29.67
2019-04-10T03:33:51.764Z,28.80
2019-04-10T03:36:19.158Z,30.30
2019-04-10T03:38:57.737Z,29.13
2019-04-10T03:41:19.885Z,29.77
2019-04-10T03:43:50.059Z,29.27
2019-04-10T03:46:19.538Z,29.40
2019-04-10T03:48:49.438Z,29.60
2019-04-10T03:51:18.691Z,28.17
2019-04-10T03:53:48.688Z,29.27
2019-04-10T03:56:18.057Z,28.63
2019-04-10T03:58:47.547Z,30.03
2019-04-10T04:01:16.778Z,27.47
2019-04-10T04:03:46.031Z,29.73
2019-04-10T04:06:15.494Z,29.70
2019-04-10T04:08:45.826Z,28.67
2019-04-10T04:11:15.601Z,28.40
2019-04-10T04:13:45.714Z,29.47
2019-04-10T04:16:15.111Z,27.70
2019-04-10T04:18:44.381Z,28.90
2019-04-10T04:21:13.766Z,28.63
2019-04-10T04:23:43.021Z,30.77
2019-04-10T04:26:12.687Z,28.80
2019-04-10T04:28:42.249Z,28.80
2019-04-10T04:31:11.456Z,29.90
2019-04-10T04:33:41.115Z,30.90
2019-04-10T04:36:10.410Z,29.10
2019-04-10T04:38:40.987Z,30.57
2019-04-10T04:41:11.116Z,29.60
2019-04-10T04:43:43.117Z,28.73
2019-04-10T04:46:12.035Z,30.33
2019-04-10T04:48:41.437Z,29.60
2019-04-10T04:51:11.241Z,30.40
2019-04-10T04:53:40.471Z,28.37
2019-04-10T04:56:09.733Z,29.37
2019-04-10T04:58:39.289Z,29.60
2019-04-10T05:01:08.545Z,29.33
2019-04-10T05:03:38.028Z,29.97
2019-04-10T05:06:08.059Z,28.87
2019-04-10T05:08:37.840Z,29.03
2019-04-10T05:11:07.245Z,29.50
2019-04-10T05:13:36.467Z,28.73
2019-04-10T05:16:06.162Z,28.83
2019-04-10T05:18:35.685Z,29.73
2019-04-10T05:21:05.189Z,29.40
2019-04-10T05:23:35.103Z,28.93
2019-04-10T05:26:04.654Z,28.80
2019-04-10T05:28:33.861Z,29.40
2019-04-10T05:31:03.200Z,29.27
2019-04-10T05:33:33.193Z,29.43
2019-04-10T05:36:02.545Z,30.13
2019-04-10T05:38:31.788Z,28.93
2019-04-10T05:41:01.376Z,29.87
2019-04-10T05:43:30.721Z,29.60
2019-04-10T05:45:59.988Z,29.67
2019-04-10T05:48:29.329Z,28.90
2019-04-10T05:51:02.798Z,29.83
2019-04-10T05:53:29.793Z,28.23
2019-04-10T05:55:59.315Z,28.63
2019-04-10T05:58:29.367Z,29.60
2019-04-10T06:01:01.037Z,27.83
2019-04-10T06:03:30.554Z,29.40
2019-04-10T06:06:01.128Z,28.07
2019-04-10T06:08:31.157Z,29.60
2019-04-10T06:11:00.582Z,31.27
2019-04-10T06:13:30.584Z,30.37
2019-04-10T06:16:01.452Z,29.73
2019-04-10T06:18:31.398Z,29.67
2019-04-10T06:21:00.897Z,28.80
2019-04-10T06:23:30.193Z,29.47
2019-04-10T06:26:00.533Z,30.03
2019-04-10T06:28:31.019Z,28.73
2019-04-10T06:31:00.674Z,30.70
2019-04-10T06:33:30.004Z,29.50
2019-04-10T06:35:59.212Z,29.03
2019-04-10T06:38:28.766Z,29.10
2019-04-10T06:40:57.938Z,29.23
2019-04-10T06:43:27.185Z,28.83
2019-04-10T06:45:56.374Z,29.07
2019-04-10T06:48:25.962Z,28.73
2019-04-10T06:50:55.667Z,28.63
2019-04-10T06:53:25.227Z,29.40
2019-04-10T06:55:54.565Z,28.23
2019-04-10T06:58:23.843Z,29.37
2019-04-10T07:00:54.904Z,28.70
2019-04-10T07:03:28.926Z,30.53
2019-04-10T07:06:06.246Z,28.90
2019-04-10T07:08:27.524Z,28.40
2019-04-10T07:11:05.154Z,29.03
2019-04-10T07:13:28.196Z,29.23
2019-04-10T07:15:58.535Z,26.57
2019-04-10T07:18:28.391Z,28.37
2019-04-10T07:21:00.980Z,29.33
2019-04-10T07:23:30.793Z,29.07
2019-04-10T07:26:00.008Z,28.67
2019-04-10T07:28:29.864Z,28.33
2019-04-10T07:31:04.672Z,29.43
2019-04-10T07:33:30.849Z,29.27
2019-04-10T07:36:04.274Z,31.03
2019-04-10T07:38:31.173Z,29.13
2019-04-10T07:41:00.383Z,31.13
2019-04-10T07:43:30.647Z,29.13
2019-04-10T07:45:59.903Z,30.30
2019-04-10T07:48:29.434Z,29.00
2019-04-10T07:50:58.756Z,30.17
2019-04-10T07:53:28.239Z,28.77
2019-04-10T07:56:05.301Z,30.03
2019-04-10T07:58:29.201Z,30.13
2019-04-10T08:00:58.874Z,29.03
2019-04-10T08:03:28.804Z,30.00
2019-04-10T08:05:58.468Z,28.13
2019-04-10T08:08:27.899Z,29.47
2019-04-10T08:10:57.473Z,29.37
2019-04-10T08:13:26.965Z,30.60
2019-04-10T08:15:56.405Z,29.43
2019-04-10T08:18:25.637Z,30.27
2019-04-10T08:20:55.187Z,29.40
2019-04-10T08:23:24.445Z,30.23
2019-04-10T08:25:53.813Z,30.97
2019-04-10T08:28:24.077Z,28.40
2019-04-10T08:30:54.652Z,30.83
2019-04-10T08:33:23.952Z,30.70
2019-04-10T08:35:53.184Z,31.47
2019-04-10T08:38:22.458Z,32.97
2019-04-10T08:40:52.385Z,32.10
2019-04-10T08:43:22.407Z,33.70
2019-04-10T08:45:53.557Z,31.80
2019-04-10T08:48:22.680Z,30.50
2019-04-10T08:50:52.445Z,31.27
2019-04-10T08:53:22.237Z,32.47
2019-04-10T08:55:52.513Z,32.13
2019-04-10T08:58:22.880Z,32.47
2019-04-10T09:00:53.022Z,31.77
2019-04-10T09:03:24.545Z,31.50
2019-04-10T09:05:53.861Z,32.33
2019-04-10T09:08:24.518Z,30.93
2019-04-10T09:10:54.606Z,31.47
2019-04-10T09:13:24.307Z,30.77
2019-04-10T09:15:54.112Z,31.63
2019-04-10T09:18:23.297Z,31.80
2019-04-10T09:20:53.112Z,31.87
2019-04-10T09:23:31.997Z,32.70
2019-04-10T09:25:53.373Z,32.97
2019-04-10T09:28:22.554Z,33.63
2019-04-10T09:30:51.816Z,33.60
2019-04-10T09:33:24.926Z,33.97
2019-04-10T09:35:52.980Z,33.63
2019-04-10T09:38:22.962Z,31.83
2019-04-10T09:40:53.320Z,32.67
2019-04-10T09:43:23.134Z,33.97
2019-04-10T09:45:53.607Z,33.00
2019-04-10T09:48:22.814Z,34.30
2019-04-10T09:50:52.641Z,34.47
2019-04-10T09:53:21.880Z,35.77
2019-04-10T09:55:52.346Z,35.50
2019-04-10T09:58:21.916Z,34.53
2019-04-10T10:00:52.248Z,35.23
2019-04-10T10:03:21.483Z,35.27
2019-04-10T10:05:51.040Z,33.80
2019-04-10T10:08:20.482Z,35.03
2019-04-10T10:10:50.272Z,35.20
2019-04-10T10:13:19.496Z,36.00
2019-04-10T10:15:49.477Z,35.60
2019-04-10T10:18:19.318Z,34.60
2019-04-10T10:20:48.614Z,34.10
2019-04-10T10:23:18.043Z,34.93
2019-04-10T10:25:47.769Z,34.40
2019-04-10T10:28:17.037Z,35.83
2019-04-10T10:30:47.368Z,35.73
2019-04-10T10:33:17.464Z,36.37
2019-04-10T10:35:47.459Z,34.83
2019-04-10T10:38:16.950Z,36.47
2019-04-10T10:40:46.654Z,35.87
2019-04-10T10:43:16.209Z,36.53
2019-04-10T10:45:46.899Z,35.87
2019-04-10T10:48:16.248Z,36.17
2019-04-10T10:50:45.725Z,37.47
2019-04-10T10:53:14.946Z,37.23
2019-04-10T10:55:44.161Z,35.40
2019-04-10T10:58:13.416Z,35.37
2019-04-10T11:00:43.156Z,36.80
2019-04-10T11:03:12.464Z,36.30
2019-04-10T11:05:42.309Z,36.87
2019-04-10T11:08:11.711Z,36.73
2019-04-10T11:10:41.382Z,35.27
2019-04-10T11:13:10.702Z,35.77
2019-04-10T11:15:42.724Z,35.47
2019-04-10T11:18:10.947Z,35.63
2019-04-10T11:20:40.212Z,37.73
2019-04-10T11:23:09.599Z,37.53
2019-04-10T11:25:40.405Z,35.97
2019-04-10T11:28:09.807Z,36.57
2019-04-10T11:30:39.050Z,37.17
2019-04-10T11:33:08.689Z,36.73
2019-04-10T11:35:39.520Z,36.33
2019-04-10T11:38:08.942Z,36.47
2019-04-10T11:40:38.929Z,35.73
2019-04-10T11:43:09.965Z,35.63
2019-04-10T11:45:43.594Z,34.30
2019-04-10T11:48:12.707Z,34.93
2019-04-10T11:50:43.909Z,34.37
2019-04-10T11:53:14.459Z,35.03
2019-04-10T11:55:49.506Z,34.77
2019-04-10T11:58:17.605Z,35.57
2019-04-10T12:00:51.219Z,34.13
2019-04-10T12:03:18.184Z,35.13
2019-04-10T12:05:49.117Z,34.53
2019-04-10T12:08:46.413Z,35.33
2019-04-10T12:11:05.155Z,33.50
2019-04-10T12:13:21.992Z,33.40
2019-04-10T12:15:51.210Z,33.53
2019-04-10T12:18:20.501Z,33.60
2019-04-10T12:20:49.724Z,32.10
2019-04-10T12:23:18.999Z,34.53
2019-04-10T12:25:49.273Z,35.00
2019-04-10T12:28:18.555Z,35.10
2019-04-10T12:30:48.191Z,35.20
2019-04-10T12:33:17.476Z,34.07
2019-04-10T12:35:47.763Z,34.30
2019-04-10T12:38:17.141Z,35.17
2019-04-10T12:40:46.767Z,34.83
2019-04-10T12:43:16.742Z,33.17
2019-04-10T12:45:46.545Z,34.77
2019-04-10T12:48:16.711Z,33.67
2019-04-10T12:50:45.969Z,34.03
2019-04-10T12:53:15.621Z,35.10
2019-04-10T12:55:45.859Z,33.73
2019-04-10T12:58:17.586Z,35.17
2019-04-10T13:00:46.137Z,33.53
2019-04-10T13:03:16.663Z,34.00
2019-04-10T13:05:46.173Z,34.20
2019-04-10T13:08:21.869Z,34.20
2019-04-10T13:10:47.642Z,33.73
2019-04-10T13:13:17.884Z,32.73
2019-04-10T13:15:47.685Z,33.03
2019-04-10T13:18:17.066Z,33.10
2019-04-10T13:20:46.993Z,33.97
2019-04-10T13:23:17.796Z,33.80
2019-04-10T13:25:55.528Z,33.20
2019-04-10T13:28:19.198Z,32.67
2019-04-10T13:30:53.162Z,32.77
2019-04-10T13:33:20.507Z,33.30
2019-04-10T13:35:49.782Z,34.63
2019-04-10T13:38:27.643Z,32.30
2019-04-10T13:40:50.218Z,31.87
2019-04-10T13:43:20.012Z,34.20
2019-04-10T13:45:49.292Z,32.80
2019-04-10T13:48:18.606Z,33.60
2019-04-10T13:50:48.704Z,34.07
2019-04-10T13:53:19.354Z,33.27
2019-04-10T13:55:48.703Z,33.53
2019-04-10T13:58:17.930Z,34.50
2019-04-10T14:00:47.182Z,34.27
2019-04-10T14:03:16.739Z,33.97
2019-04-10T14:05:46.637Z,34.50
2019-04-10T14:08:17.214Z,34.30
2019-04-10T14:10:46.836Z,36.23
2019-04-10T14:13:16.264Z,34.60
2019-04-10T14:15:46.371Z,34.50
2019-04-10T14:18:16.644Z,35.80
2019-04-10T14:20:46.010Z,35.47
2019-04-10T14:23:28.922Z,35.60
2019-04-10T14:26:17.191Z,34.47
2019-04-10T14:28:47.148Z,34.80
2019-04-10T14:31:32.102Z,35.30
2019-04-10T14:34:02.197Z,36.07
2019-04-10T14:36:32.961Z,35.63
2019-04-10T14:39:10.100Z,37.87
2019-04-10T14:41:33.767Z,35.40
2019-04-10T14:44:04.076Z,35.57
2019-04-10T14:46:33.716Z,36.40
2019-04-10T14:49:03.380Z,35.93
2019-04-10T14:51:32.894Z,36.47
2019-04-10T14:54:02.175Z,35.93
2019-04-10T14:56:32.404Z,36.50
2019-04-10T14:59:02.074Z,37.03
2019-04-10T15:01:31.536Z,35.87
2019-04-10T15:04:00.784Z,37.60
2019-04-10T15:06:31.123Z,36.30
2019-04-10T15:09:00.881Z,37.13
2019-04-10T15:11:30.864Z,35.57
2019-04-10T15:14:01.310Z,36.60
2019-04-10T15:16:31.476Z,37.07
2019-04-10T15:19:01.131Z,38.20
2019-04-10T15:21:31.207Z,36.60
2019-04-10T15:24:01.389Z,36.97
2019-04-10T15:26:30.823Z,36.77
2019-04-10T15:29:00.323Z,35.93
2019-04-10T15:31:31.261Z,35.83
2019-04-10T15:34:01.619Z,38.30
2019-04-10T15:36:31.785Z,37.10
2019-04-10T15:39:02.238Z,38.33
2019-04-10T15:41:32.878Z,37.07
2019-04-10T15:44:05.705Z,38.37
2019-04-10T15:46:35.475Z,39.00
2019-04-10T15:49:05.420Z,39.30
2019-04-10T15:51:39.320Z,40.03
2019-04-10T15:54:11.772Z,39.37
2019-04-10T15:56:42.254Z,39.53
2019-04-10T15:59:12.169Z,39.33
2019-04-10T16:01:41.486Z,38.43
2019-04-10T16:04:11.588Z,40.20
2019-04-10T16:06:41.789Z,40.00
2019-04-10T16:09:16.940Z,38.93
2019-04-10T16:12:00.475Z,37.77
2019-04-10T16:14:32.074Z,39.73
2019-04-10T16:17:23.874Z,39.20
2019-04-10T16:20:15.558Z,39.23
2019-04-10T16:23:04.577Z,39.23
2019-04-10T16:26:04.931Z,39.50
2019-04-10T16:28:37.576Z,40.33
2019-04-10T16:31:09.222Z,39.97
2019-04-10T16:33:41.298Z,40.73
2019-04-10T16:36:12.860Z,40.60
2019-04-10T16:38:44.963Z,40.70
2019-04-10T16:41:41.875Z,39.93
2019-04-10T16:44:11.449Z,40.40
2019-04-10T16:46:44.349Z,40.90
2019-04-10T16:49:15.307Z,41.73
2019-04-10T16:51:45.524Z,41.20
2019-04-10T17:08:17.488Z,38.97
2019-04-10T17:10:48.289Z,41.00
2019-04-10T17:13:19.791Z,41.73
2019-04-10T17:15:51.790Z,41.47
2019-04-10T17:18:23.334Z,41.40
2019-04-10T17:21:00.671Z,43.47
2019-04-10T17:23:53.791Z,41.87
2019-04-10T17:34:25.065Z,43.70
2019-04-10T17:36:57.092Z,42.93
2019-04-10T17:39:27.485Z,41.60
2019-04-10T17:47:17.056Z,43.27
2019-04-10T17:50:22.361Z,42.63
2019-04-10T17:52:56.683Z,42.23
2019-04-10T17:55:33.652Z,41.27
2019-04-10T17:58:10.120Z,42.70
2019-04-10T18:00:47.254Z,42.63
2019-04-10T18:03:23.499Z,43.53
2019-04-10T18:05:55.201Z,43.23
2019-04-10T18:08:34.647Z,41.43
2019-04-10T18:11:35.925Z,43.47
2019-04-10T18:39:24.080Z,39.93
2019-04-10T18:42:15.594Z,40.53
2019-04-10T18:44:51.329Z,39.37
2019-04-10T18:47:25.407Z,40.63
2019-04-10T18:50:00.913Z,40.97
2019-04-10T18:52:40.504Z,40.53
2019-04-10T18:55:20.391Z,40.77
2019-04-10T18:57:52.845Z,42.33
2019-04-10T19:00:52.018Z,41.97
2019-04-10T19:03:46.267Z,41.43
2019-04-10T19:06:14.836Z,42.27
2019-04-10T19:09:00.072Z,41.53
2019-04-10T19:11:29.110Z,42.57
2019-04-10T19:14:01.645Z,42.87
2019-04-10T19:16:33.216Z,42.70
2019-04-10T19:33:29.709Z,40.67
2019-04-10T20:19:52.613Z,44.10
2019-04-10T21:28:45.758Z,45.43
2019-04-10T21:44:09.724Z,42.13
2019-04-10T21:46:44.434Z,45.13
2019-04-10T21:49:26.163Z,44.90
2019-04-10T21:52:12.327Z,44.27
2019-04-10T21:54:49.593Z,43.70
2019-04-10T21:57:26.379Z,43.67
2019-04-10T22:04:12.087Z,43.97
2019-04-10T22:06:55.792Z,43.43
2019-04-10T22:10:19.640Z,43.63
2019-04-10T22:12:51.014Z,43.37
2019-04-10T22:15:30.958Z,42.50
2019-04-10T22:18:00.866Z,42.30
2019-04-10T22:20:30.416Z,42.67
2019-04-10T22:22:59.855Z,42.47
2019-04-10T22:25:29.844Z,42.40
2019-04-10T22:28:00.534Z,43.70
2019-04-10T22:30:30.422Z,42.13
2019-04-10T22:33:00.061Z,45.03
2019-04-10T22:35:29.482Z,42.83
2019-04-10T22:37:58.921Z,42.27
2019-04-10T22:40:29.210Z,43.10
2019-04-10T22:42:59.552Z,43.47
2019-04-10T22:45:32.440Z,43.40
2019-04-10T22:48:04.549Z,43.70
2019-04-10T22:50:36.487Z,44.17
2019-04-10T22:53:07.149Z,43.90
2019-04-10T22:55:38.901Z,43.20
2019-04-10T22:58:10.903Z,43.10
2019-04-10T23:00:43.804Z,42.20
2019-04-10T23:03:14.493Z,42.87
2019-04-10T23:05:46.871Z,43.13
2019-04-10T23:08:20.145Z,43.27
2019-04-10T23:10:51.190Z,42.30
2019-04-10T23:16:56.716Z,40.73
2019-04-10T23:19:25.952Z,42.50
2019-04-10T23:21:55.301Z,42.67
2019-04-10T23:24:24.510Z,41.20
2019-04-10T23:31:31.994Z,41.43
2019-04-10T23:34:04.089Z,40.73
2019-04-10T23:36:34.089Z,40.20
2019-04-10T23:39:04.013Z,39.57
2019-04-10T23:41:34.103Z,40.70
2019-04-10T23:44:04.110Z,40.17
2019-04-10T23:58:27.104Z,39.40
